createdAt,value
2018-06-14T00:01:05.089Z,3.03
2018-06-14T00:03:36.084Z,3.43
2018-06-14T00:06:07.592Z,3.20
2018-06-14T00:08:37.883Z,2.97
2018-06-14T00:11:08.119Z,3.03
2018-06-14T00:13:39.086Z,3.10
2018-06-14T00:16:11.062Z,3.43
2018-06-14T00:18:41.048Z,3.00
2018-06-14T00:21:12.658Z,2.77
2018-06-14T00:23:42.940Z,2.80
2018-06-14T00:26:15.623Z,3.20
2018-06-14T00:28:46.829Z,3.27
2018-06-14T00:31:17.006Z,2.67
2018-06-14T00:33:48.855Z,3.07
2018-06-14T00:36:19.457Z,3.10
2018-06-14T00:38:49.830Z,2.97
2018-06-14T00:41:20.154Z,3.00
2018-06-14T00:43:50.573Z,3.10
2018-06-14T00:46:20.906Z,2.90
2018-06-14T00:48:51.749Z,3.33
2018-06-14T00:51:23.031Z,3.03
2018-06-14T00:53:54.760Z,3.00
2018-06-14T00:56:25.319Z,3.03
2018-06-14T00:58:55.224Z,2.90
2018-06-14T01:01:25.579Z,3.00
2018-06-14T01:03:56.116Z,3.00
2018-06-14T01:06:26.229Z,3.20
2018-06-14T01:08:57.578Z,3.10
2018-06-14T01:11:27.761Z,3.47
2018-06-14T01:13:57.777Z,2.90
2018-06-14T01:16:28.336Z,2.90
2018-06-14T01:18:58.265Z,2.90
2018-06-14T01:21:29.980Z,2.57
2018-06-14T01:24:00.480Z,2.87
2018-06-14T01:26:30.951Z,3.30
2018-06-14T01:29:01.344Z,3.20
2018-06-14T01:31:30.663Z,2.80
2018-06-14T01:34:02.233Z,3.20
2018-06-14T01:36:32.948Z,3.07
2018-06-14T01:39:05.366Z,3.00
2018-06-14T01:41:35.763Z,2.83
2018-06-14T01:44:06.111Z,3.07
2018-06-14T01:46:53.193Z,3.03
2018-06-14T01:49:24.333Z,2.83
2018-06-14T01:51:55.339Z,2.70
2018-06-14T01:54:25.369Z,2.73
2018-06-14T01:56:55.783Z,2.87
2018-06-14T01:59:25.727Z,2.83
2018-06-14T02:01:56.069Z,3.10
2018-06-14T02:04:26.461Z,3.00
2018-06-14T02:06:57.075Z,3.07
2018-06-14T02:09:27.124Z,2.80
2018-06-14T02:11:57.305Z,3.13
2018-06-14T02:14:31.642Z,2.90
2018-06-14T02:17:02.286Z,3.40
2018-06-14T02:19:32.296Z,2.70
2018-06-14T02:22:02.614Z,2.80
2018-06-14T02:24:33.066Z,3.07
2018-06-14T02:27:03.377Z,2.90
2018-06-14T02:29:33.288Z,3.17
2018-06-14T02:32:05.062Z,2.90
2018-06-14T02:34:35.173Z,2.83
2018-06-14T02:37:05.459Z,2.90
2018-06-14T02:39:44.461Z,2.93
2018-06-14T02:42:15.018Z,3.20
2018-06-14T02:44:45.797Z,3.43
2018-06-14T02:47:15.931Z,2.80
2018-06-14T02:49:47.000Z,2.90
2018-06-14T02:52:17.285Z,3.03
2018-06-14T02:54:47.677Z,2.90
2018-06-14T02:57:21.149Z,2.40
2018-06-14T02:59:53.481Z,3.00
2018-06-14T03:02:24.945Z,3.37
2018-06-14T03:04:58.605Z,2.90
2018-06-14T03:07:35.180Z,2.90
2018-06-14T03:10:08.555Z,3.17
2018-06-14T03:12:41.902Z,3.13
2018-06-14T03:15:15.104Z,3.10
2018-06-14T03:17:50.387Z,3.50
2018-06-14T03:20:29.785Z,3.17
2018-06-14T03:23:04.148Z,3.23
2018-06-14T03:25:35.624Z,3.10
2018-06-14T03:28:06.259Z,3.10
2018-06-14T03:30:35.650Z,2.90
2018-06-14T03:33:06.483Z,3.13
2018-06-14T03:35:37.089Z,3.23
2018-06-14T03:38:10.242Z,3.40
2018-06-14T03:40:40.567Z,3.20
2018-06-14T03:46:04.550Z,3.33
2018-06-14T03:48:34.527Z,3.50
2018-06-14T03:51:04.860Z,3.37
2018-06-14T03:53:35.452Z,3.27
2018-06-14T03:56:05.636Z,3.23
2018-06-14T03:58:35.948Z,3.50
2018-06-14T04:01:05.920Z,3.70
2018-06-14T04:03:35.923Z,3.37
2018-06-14T04:06:06.163Z,3.17
2018-06-14T04:08:36.289Z,3.03
2018-06-14T04:11:06.138Z,3.43
2018-06-14T04:13:36.999Z,3.50
2018-06-14T04:16:06.939Z,3.50
2018-06-14T04:19:12.210Z,3.70
2018-06-14T04:21:42.294Z,3.60
2018-06-14T04:24:23.061Z,3.63
2018-06-14T04:26:53.441Z,3.97
2018-06-14T04:29:23.342Z,3.93
2018-06-14T04:31:56.667Z,3.60
2018-06-14T04:34:26.888Z,3.33
2018-06-14T04:36:59.760Z,3.60
2018-06-14T04:39:39.533Z,3.40
2018-06-14T04:42:32.407Z,3.77
2018-06-14T04:48:07.673Z,3.23
2018-06-14T04:50:37.718Z,2.87
2018-06-14T04:53:08.022Z,3.67
2018-06-14T04:55:38.675Z,2.73
2018-06-14T04:58:09.688Z,5.13
2018-06-14T05:00:41.217Z,3.00
2018-06-14T05:03:11.519Z,3.07
2018-06-14T05:05:42.010Z,2.80
2018-06-14T05:08:13.094Z,3.00
2018-06-14T05:10:44.593Z,2.97
2018-06-14T05:13:14.601Z,2.93
2018-06-14T05:15:45.913Z,3.00
2018-06-14T05:18:15.952Z,2.80
2018-06-14T05:20:47.342Z,3.07
2018-06-14T05:23:17.669Z,2.80
2018-06-14T05:25:48.594Z,2.87
2018-06-14T05:28:18.877Z,2.90
2018-06-14T05:30:49.550Z,3.17
2018-06-14T05:33:21.482Z,3.17
2018-06-14T05:35:52.764Z,2.60
2018-06-14T05:38:22.904Z,3.20
2018-06-14T05:40:53.447Z,3.03
2018-06-14T05:43:25.020Z,4.93
2018-06-14T05:45:55.183Z,3.60
2018-06-14T05:48:25.672Z,4.40
2018-06-14T05:50:56.283Z,3.17
2018-06-14T05:53:25.698Z,3.00
2018-06-14T05:55:57.008Z,3.10
2018-06-14T05:58:28.530Z,2.53
2018-06-14T06:00:59.827Z,6.97
2018-06-14T06:03:30.894Z,17.57
2018-06-14T06:06:01.289Z,13.13
2018-06-14T06:08:31.828Z,7.90
2018-06-14T06:11:02.664Z,4.80
2018-06-14T06:13:33.409Z,3.73
2018-06-14T06:16:07.981Z,2.53
2018-06-14T06:18:45.846Z,2.43
2018-06-14T06:21:18.448Z,2.27
2018-06-14T06:23:48.742Z,2.77
2018-06-14T06:26:18.282Z,2.53
2018-06-14T06:28:51.397Z,2.77
2018-06-14T06:31:24.394Z,2.80
2018-06-14T06:33:55.769Z,2.60
2018-06-14T06:36:30.333Z,3.23
2018-06-14T06:39:02.284Z,3.33
2018-06-14T06:41:34.019Z,3.10
2018-06-14T06:44:08.032Z,3.30
2018-06-14T06:46:40.407Z,3.77
2018-06-14T06:49:11.358Z,3.70
2018-06-14T06:51:43.000Z,4.40
2018-06-14T06:54:13.806Z,5.67
2018-06-14T06:56:45.089Z,6.00
2018-06-14T06:59:18.759Z,5.87
2018-06-14T07:01:58.679Z,5.87
2018-06-14T07:04:31.224Z,6.63
2018-06-14T07:07:03.901Z,5.70
2018-06-14T07:09:35.569Z,5.90
2018-06-14T07:12:07.664Z,6.30
2018-06-14T07:14:39.074Z,5.73
2018-06-14T07:17:14.145Z,6.30
2018-06-14T07:19:47.929Z,6.07
2018-06-14T07:22:18.213Z,6.33
2018-06-14T07:24:48.805Z,5.40
2018-06-14T07:27:19.905Z,5.07
2018-06-14T07:29:53.301Z,5.07
2018-06-14T07:32:27.500Z,5.23
2018-06-14T07:35:00.653Z,4.93
2018-06-14T07:37:33.879Z,5.00
2018-06-14T07:40:23.673Z,4.17
2018-06-14T07:43:04.755Z,4.60
2018-06-14T07:45:36.850Z,4.03
2018-06-14T07:48:08.840Z,4.13
2018-06-14T07:50:42.248Z,4.30
2018-06-14T07:53:16.528Z,4.50
2018-06-14T07:55:49.861Z,6.30
2018-06-14T07:58:20.961Z,4.07
2018-06-14T08:00:56.941Z,4.50
2018-06-14T08:03:30.927Z,4.23
2018-06-14T08:06:01.820Z,4.77
2018-06-14T08:08:35.434Z,4.00
2018-06-14T08:11:09.535Z,4.20
2018-06-14T08:13:43.034Z,4.27
2018-06-14T08:16:13.702Z,4.03
2018-06-14T08:18:44.281Z,3.80
2018-06-14T08:21:14.751Z,4.40
2018-06-14T08:23:48.339Z,5.27
2018-06-14T08:26:20.180Z,4.13
2018-06-14T08:28:53.938Z,4.27
2018-06-14T08:31:26.201Z,4.43
2018-06-14T08:33:58.770Z,4.53
2018-06-14T08:36:31.067Z,3.90
2018-06-14T08:39:10.359Z,4.60
2018-06-14T08:41:40.655Z,9.23
2018-06-14T08:44:22.400Z,4.50
2018-06-14T08:46:58.225Z,5.03
2018-06-14T08:49:34.865Z,4.80
2018-06-14T08:52:10.324Z,5.00
2018-06-14T08:54:42.687Z,5.00
2018-06-14T08:57:13.002Z,4.90
2018-06-14T08:59:46.409Z,4.67
2018-06-14T09:02:20.188Z,6.73
2018-06-14T09:04:55.349Z,4.60
2018-06-14T09:07:28.126Z,5.17
2018-06-14T09:10:04.583Z,4.40
2018-06-14T09:12:38.105Z,4.73
2018-06-14T09:15:10.584Z,4.83
2018-06-14T09:17:46.582Z,4.63
2018-06-14T09:20:19.548Z,3.73
2018-06-14T09:22:54.516Z,3.87
2018-06-14T09:28:12.392Z,3.60
2018-06-14T09:30:45.706Z,3.80
2018-06-14T09:33:18.062Z,4.03
2018-06-14T09:35:53.374Z,3.70
2018-06-14T09:38:26.573Z,3.73
2018-06-14T09:41:13.687Z,3.57
2018-06-14T09:43:50.616Z,3.73
2018-06-14T09:46:25.891Z,3.40
2018-06-14T09:49:07.360Z,3.63
2018-06-14T09:51:45.400Z,3.73
2018-06-14T09:55:27.024Z,3.80
2018-06-14T09:58:05.548Z,3.30
2018-06-14T10:00:40.535Z,3.27
2018-06-14T10:06:12.371Z,2.83
2018-06-14T10:08:45.094Z,3.03
2018-06-14T10:11:17.570Z,3.10
2018-06-14T10:13:52.008Z,2.97
2018-06-14T10:16:26.522Z,2.80
2018-06-14T10:18:59.031Z,2.70
2018-06-14T10:21:30.396Z,3.17
2018-06-14T10:24:13.189Z,2.50
2018-06-14T10:29:30.423Z,2.63
2018-06-14T10:32:01.317Z,2.90
2018-06-14T10:34:33.594Z,2.73
2018-06-14T10:37:04.584Z,2.90
2018-06-14T10:39:38.240Z,2.73
2018-06-14T10:42:10.426Z,2.60
2018-06-14T10:44:40.720Z,2.77
2018-06-14T10:47:14.049Z,2.90
2018-06-14T10:49:46.594Z,2.10
2018-06-14T10:52:18.689Z,2.53
2018-06-14T10:54:58.890Z,3.10
2018-06-14T10:57:31.552Z,3.20
2018-06-14T11:00:06.126Z,2.50
2018-06-14T11:02:42.523Z,2.20
2018-06-14T11:05:17.119Z,2.40
2018-06-14T11:07:51.866Z,2.20
2018-06-14T11:10:24.809Z,2.77
2018-06-14T11:12:55.145Z,2.30
2018-06-14T11:15:31.670Z,2.57
2018-06-14T11:18:04.367Z,2.80
2018-06-14T11:20:39.410Z,2.40
2018-06-14T11:23:18.751Z,2.50
2018-06-14T11:25:52.718Z,2.53
2018-06-14T11:28:27.511Z,2.47
2018-06-14T11:31:03.298Z,2.70
2018-06-14T11:33:35.579Z,2.47
2018-06-14T11:36:13.696Z,2.40
2018-06-14T11:38:48.484Z,2.37
2018-06-14T11:41:27.605Z,1.90
2018-06-14T11:44:13.794Z,2.43
2018-06-14T11:49:34.427Z,2.47
2018-06-14T11:52:09.210Z,7.07
2018-06-14T11:54:55.064Z,2.33
2018-06-14T11:57:31.818Z,2.37
2018-06-14T12:00:17.949Z,2.07
2018-06-14T12:02:51.979Z,3.83
2018-06-14T12:05:27.709Z,2.03
2018-06-14T12:07:59.670Z,2.37
2018-06-14T12:10:31.587Z,2.20
2018-06-14T12:13:09.715Z,2.10
2018-06-14T12:15:41.022Z,2.53
2018-06-14T12:18:21.029Z,2.70
2018-06-14T12:20:56.259Z,2.30
2018-06-14T12:23:27.050Z,2.33
2018-06-14T12:25:59.443Z,2.10
2018-06-14T12:28:37.138Z,2.50
2018-06-14T12:31:29.105Z,2.40
2018-06-14T12:34:01.421Z,1.93
2018-06-14T12:36:35.658Z,2.47
2018-06-14T12:39:12.608Z,1.80
2018-06-14T12:41:46.049Z,1.80
2018-06-14T12:44:19.425Z,1.83
2018-06-14T12:46:50.755Z,2.13
2018-06-14T12:52:06.374Z,2.33
2018-06-14T12:54:39.890Z,1.90
2018-06-14T12:57:15.822Z,2.00
2018-06-14T12:59:54.798Z,2.20
2018-06-14T13:02:30.905Z,2.70
2018-06-14T13:05:07.226Z,2.00
2018-06-14T13:07:43.653Z,2.20
2018-06-14T13:10:23.016Z,2.00
2018-06-14T13:12:56.879Z,2.07
2018-06-14T13:15:34.547Z,2.10
2018-06-14T13:18:12.796Z,2.07
2018-06-14T13:20:46.718Z,2.00
2018-06-14T13:23:24.519Z,2.20
2018-06-14T13:26:08.195Z,1.87
2018-06-14T13:28:44.135Z,1.80
2018-06-14T13:31:21.548Z,2.10
2018-06-14T13:34:03.592Z,2.00
2018-06-14T13:36:39.099Z,2.37
2018-06-14T13:39:13.970Z,2.30
2018-06-14T13:41:52.788Z,2.03
2018-06-14T13:44:27.469Z,2.30
2018-06-14T13:47:03.462Z,3.03
2018-06-14T13:49:38.985Z,2.40
2018-06-14T13:52:16.107Z,1.80
2018-06-14T13:54:52.822Z,2.20
2018-06-14T13:57:29.779Z,2.10
2018-06-14T14:00:09.349Z,2.20
2018-06-14T14:02:51.990Z,2.27
2018-06-14T14:08:18.436Z,2.23
2018-06-14T14:10:56.264Z,2.10
2018-06-14T14:13:37.504Z,2.37
2018-06-14T14:16:10.210Z,1.90
2018-06-14T14:18:49.949Z,2.13
2018-06-14T14:21:29.527Z,2.40
2018-06-14T14:24:04.305Z,2.20
2018-06-14T14:26:42.812Z,2.00
2018-06-14T14:29:20.492Z,2.10
2018-06-14T14:32:02.718Z,2.03
2018-06-14T14:34:37.007Z,2.03
2018-06-14T14:37:12.342Z,2.20
2018-06-14T14:39:46.712Z,2.27
2018-06-14T14:42:21.768Z,2.63
2018-06-14T14:45:00.250Z,2.60
2018-06-14T14:47:34.363Z,2.30
2018-06-14T14:50:12.000Z,2.03
2018-06-14T14:52:50.023Z,1.97
2018-06-14T14:55:43.790Z,2.20
2018-06-14T14:58:20.395Z,2.70
2018-06-14T15:01:04.683Z,2.13
2018-06-14T15:03:46.128Z,2.60
2018-06-14T15:06:29.834Z,2.40
2018-06-14T15:09:06.077Z,2.33
2018-06-14T15:11:46.338Z,3.47
2018-06-14T15:14:27.368Z,2.90
2018-06-14T15:17:07.548Z,4.10
2018-06-14T15:19:47.425Z,2.37
2018-06-14T15:22:25.970Z,2.30
2018-06-14T15:25:06.652Z,3.70
2018-06-14T15:27:41.855Z,2.40
2018-06-14T15:30:21.868Z,2.60
2018-06-14T15:32:56.078Z,2.60
2018-06-14T15:35:46.208Z,2.27
2018-06-14T15:38:23.587Z,2.53
2018-06-14T15:40:55.357Z,2.70
2018-06-14T15:43:28.104Z,2.70
2018-06-14T15:46:18.577Z,2.50
2018-06-14T15:49:03.785Z,2.83
2018-06-14T15:51:38.634Z,3.10
2018-06-14T15:54:22.942Z,2.83
2018-06-14T15:56:58.216Z,4.27
2018-06-14T15:59:33.362Z,8.87
2018-06-14T16:02:12.266Z,2.87
2018-06-14T16:04:48.138Z,3.40
2018-06-14T16:07:27.727Z,3.53
2018-06-14T16:10:02.838Z,3.67
2018-06-14T16:12:41.887Z,4.77
2018-06-14T16:15:21.585Z,3.73
2018-06-14T16:18:01.028Z,3.87
2018-06-14T16:20:42.919Z,3.50
2018-06-14T16:23:29.525Z,4.23
2018-06-14T16:26:11.782Z,4.03
2018-06-14T16:28:50.074Z,4.50
2018-06-14T16:31:34.438Z,4.63
2018-06-14T16:34:10.056Z,4.10
2018-06-14T16:36:43.463Z,3.90
2018-06-14T16:39:16.538Z,3.93
2018-06-14T16:41:50.752Z,3.93
2018-06-14T16:44:29.200Z,4.00
2018-06-14T16:47:04.762Z,4.30
2018-06-14T16:49:46.959Z,6.30
2018-06-14T16:52:24.511Z,4.03
2018-06-14T16:55:03.669Z,4.43
2018-06-14T16:57:40.980Z,4.10
2018-06-14T17:00:17.785Z,4.50
2018-06-14T17:02:57.173Z,4.50
2018-06-14T17:05:33.525Z,4.47
2018-06-14T17:08:10.720Z,4.50
2018-06-14T17:10:46.307Z,4.07
2018-06-14T17:13:22.595Z,4.67
2018-06-14T17:15:57.113Z,4.67
2018-06-14T17:18:36.574Z,4.63
2018-06-14T17:21:09.540Z,4.97
2018-06-14T17:23:45.159Z,4.43
2018-06-14T17:26:26.034Z,5.17
2018-06-14T17:29:06.240Z,5.00
2018-06-14T17:31:42.371Z,4.63
2018-06-14T17:34:16.634Z,5.03
2018-06-14T17:36:48.564Z,4.87
2018-06-14T17:39:26.459Z,5.23
2018-06-14T17:42:05.841Z,4.90
2018-06-14T17:44:39.158Z,5.00
2018-06-14T17:47:13.899Z,5.33
2018-06-14T17:49:48.982Z,4.90
2018-06-14T17:52:25.700Z,4.60
2018-06-14T17:55:02.750Z,4.90
2018-06-14T17:57:36.644Z,4.93
2018-06-14T18:00:13.560Z,4.90
2018-06-14T18:02:50.862Z,4.57
2018-06-14T18:05:25.151Z,5.13
2018-06-14T18:07:58.560Z,5.03
2018-06-14T18:10:31.073Z,4.93
2018-06-14T18:13:04.686Z,4.97
2018-06-14T18:15:39.748Z,4.73
2018-06-14T18:18:19.846Z,5.20
2018-06-14T18:20:59.202Z,5.03
2018-06-14T18:23:33.342Z,4.77
2018-06-14T18:26:18.009Z,5.30
2018-06-14T18:28:51.960Z,5.17
2018-06-14T18:31:25.739Z,4.90
2018-06-14T18:33:58.318Z,5.60
2018-06-14T18:36:28.974Z,4.77
2018-06-14T18:39:03.492Z,5.13
2018-06-14T18:41:43.914Z,4.77
2018-06-14T18:44:21.389Z,5.00
2018-06-14T18:46:59.143Z,5.60
2018-06-14T18:49:32.510Z,5.67
2018-06-14T18:52:06.451Z,5.77
2018-06-14T18:54:53.752Z,5.27
2018-06-14T18:57:27.006Z,5.40
2018-06-14T19:00:04.767Z,6.00
2018-06-14T19:02:39.648Z,6.10
2018-06-14T19:05:24.481Z,6.33
2018-06-14T19:07:56.581Z,6.40
2018-06-14T19:10:32.350Z,6.50
2018-06-14T19:15:59.756Z,7.20
2018-06-14T19:18:47.216Z,6.63
2018-06-14T19:21:27.856Z,5.97
2018-06-14T19:24:02.729Z,6.40
2018-06-14T19:26:41.929Z,5.60
2018-06-14T19:29:16.956Z,5.77
2018-06-14T19:34:27.866Z,6.27
2018-06-14T19:37:07.941Z,5.43
2018-06-14T19:39:43.213Z,5.80
2018-06-14T19:42:21.723Z,6.17
2018-06-14T19:45:09.075Z,6.20
2018-06-14T19:47:41.935Z,6.13
2018-06-14T19:50:16.609Z,6.10
2018-06-14T19:52:53.766Z,6.00
2018-06-14T19:55:27.343Z,5.73
2018-06-14T19:58:01.941Z,5.60
2018-06-14T20:00:35.104Z,5.70
2018-06-14T20:03:11.447Z,5.97
2018-06-14T20:05:42.920Z,6.10
2018-06-14T20:08:13.673Z,5.30
2018-06-14T20:10:44.953Z,6.17
2018-06-14T20:13:19.947Z,6.20
2018-06-14T20:15:54.046Z,6.50
2018-06-14T20:18:28.650Z,6.33
2018-06-14T20:21:02.005Z,6.30
2018-06-14T20:23:39.854Z,5.87
2018-06-14T20:26:12.282Z,6.30
2018-06-14T20:28:47.592Z,6.47
2018-06-14T20:31:29.033Z,7.57
2018-06-14T20:34:00.593Z,6.97
2018-06-14T20:36:35.869Z,6.70
2018-06-14T20:39:13.437Z,10.10
2018-06-14T20:41:52.880Z,6.80
2018-06-14T20:44:24.425Z,6.17
2018-06-14T20:46:57.895Z,6.07
2018-06-14T20:49:34.949Z,6.13
2018-06-14T20:52:10.250Z,6.27
2018-06-14T20:54:45.735Z,7.20
2018-06-14T20:57:16.533Z,5.80
2018-06-14T20:59:53.583Z,5.93
2018-06-14T21:02:27.557Z,5.80
2018-06-14T21:05:04.635Z,5.63
2018-06-14T21:07:46.100Z,5.37
2018-06-14T21:10:18.783Z,5.50
2018-06-14T21:12:50.910Z,5.30
2018-06-14T21:15:27.312Z,4.80
2018-06-14T21:17:59.640Z,5.20
2018-06-14T21:23:16.792Z,5.57
2018-06-14T21:25:51.408Z,5.00
2018-06-14T21:28:25.067Z,4.60
2018-06-14T21:31:01.759Z,5.40
2018-06-14T21:33:37.530Z,5.50
2018-06-14T21:36:11.935Z,5.20
2018-06-14T21:38:52.140Z,5.10
2018-06-14T21:41:26.491Z,5.77
2018-06-14T21:44:03.874Z,5.30
2018-06-14T21:46:38.260Z,5.73
2018-06-14T21:49:17.963Z,6.10
2018-06-14T21:51:50.105Z,5.20
2018-06-14T21:54:29.917Z,5.67
2018-06-14T21:57:01.547Z,5.80
2018-06-14T21:59:35.768Z,5.70
2018-06-14T22:02:11.270Z,5.50
2018-06-14T22:04:42.133Z,5.40
2018-06-14T22:07:22.739Z,5.20
2018-06-14T22:09:57.940Z,5.47
2018-06-14T22:12:31.365Z,5.53
2018-06-14T22:15:03.259Z,5.20
2018-06-14T22:17:35.044Z,5.63
2018-06-14T22:20:07.938Z,5.37
2018-06-14T22:22:39.688Z,5.67
2018-06-14T22:25:15.897Z,5.60
2018-06-14T22:27:47.307Z,5.67
2018-06-14T22:30:25.227Z,5.83
2018-06-14T22:33:06.138Z,5.80
2018-06-14T22:35:39.253Z,5.97
2018-06-14T22:38:10.311Z,5.87
2018-06-14T22:40:41.204Z,5.60
2018-06-14T22:43:13.079Z,5.50
2018-06-14T22:45:43.682Z,5.53
2018-06-14T22:48:14.965Z,6.00
2018-06-14T22:50:56.034Z,5.43
2018-06-14T22:53:28.974Z,5.73
2018-06-14T22:56:04.265Z,5.70
2018-06-14T22:58:34.970Z,5.80
2018-06-14T23:01:39.990Z,6.20
2018-06-14T23:04:12.440Z,6.60
2018-06-14T23:06:47.253Z,6.40
2018-06-14T23:10:29.394Z,5.73
2018-06-14T23:13:03.903Z,5.90
2018-06-14T23:15:34.634Z,5.90
2018-06-14T23:18:10.107Z,5.87
2018-06-14T23:20:42.449Z,5.73
2018-06-14T23:23:13.546Z,6.30
2018-06-14T23:25:45.405Z,5.93
2018-06-14T23:28:17.045Z,6.07
2018-06-14T23:30:49.078Z,6.60
2018-06-14T23:33:20.478Z,6.00
2018-06-14T23:35:53.479Z,6.30
2018-06-14T23:38:25.182Z,5.90
2018-06-14T23:40:55.304Z,6.73
2018-06-14T23:43:30.419Z,6.43
2018-06-14T23:46:00.784Z,5.80
2018-06-14T23:48:30.852Z,5.80
2018-06-14T23:51:01.017Z,6.87
2018-06-14T23:53:32.124Z,6.20
2018-06-14T23:56:02.864Z,6.20
2018-06-14T23:58:34.347Z,6.17
